Time;durP1;ratioP1;P1;durP2;ratioP2;P2;SDS_P1;SDS_P2;PMS_P1;PMS_P2;Temp;Humidity;BMP_temperature;BMP_pressure;BME280_temperature;BME280_humidity;BME280_pressure;Samples;Min_cycle;Max_cycle;Signal;HPM_P1;HPM_P2
2021/05/16 11:33:56;;;;;;;1975.40;999.90;;;589.20;2048.00;;;;;;5091346;27;20398;-78
2021/05/16 11:36:26;;;;;;;1848.40;879.60;;;640.40;1843.20;;;;;;5093468;28;20495;-76
2021/05/16 11:38:54;;;;;;;538.17;334.10;;;666.50;1715.20;;;;;;5072426;28;20079;-77
2021/05/16 11:41:29;;;;;;;258.13;204.88;;;691.20;1664.00;;;;;;5092596;28;20037;-77
2021/05/16 11:43:55;;;;;;;1064.25;812.88;;;691.20;1664.00;;;;;;5068012;28;20096;-76
2021/05/16 11:46:31;;;;;;;1817.65;924.88;;;691.30;1664.00;;;;;;5068189;28;20027;-78
2021/05/16 11:48:57;;;;;;;1528.40;602.08;;;692.00;1536.00;;;;;;5068948;28;20020;-78
2021/05/16 11:51:24;;;;;;;1999.90;999.90;;;692.00;1510.40;;;;;;5068200;28;20796;-78
2021/05/16 11:53:54;;;;;;;1999.90;999.90;;;716.90;1459.20;;;;;;5065828;28;20055;-77
2021/05/16 11:56:27;;;;;;;343.48;308.33;;;716.80;1510.40;;;;;;5068544;28;20437;-77
2021/05/16 11:58:58;;;;;;;1588.85;999.63;;;717.70;1382.40;;;;;;5069203;28;20091;-76
2021/05/16 12:01:32;;;;;;;211.07;188.43;;;742.90;1382.40;;;;;;5065396;28;20024;-77
2021/05/16 12:04:05;;;;;;;495.75;447.08;;;768.20;1356.80;;;;;;5074794;28;20052;-77
2021/05/16 12:06:52;;;;;;;192.30;174.88;;;743.00;1331.20;;;;;;5094781;28;20028;-78
2021/05/16 12:09:20;;;;;;;52.72;47.83;;;768.90;1305.60;;;;;;5071189;28;20044;-77
2021/05/16 12:11:49;;;;;;;6.78;6.13;;;793.80;1254.40;;;;;;5086061;28;20070;-75
2021/05/16 12:14:20;;;;;;;212.77;194.35;;;768.40;1280.00;;;;;;5072091;28;20033;-75
2021/05/16 12:16:54;;;;;;;5.13;4.20;;;768.20;1331.20;;;;;;5073628;28;20024;-74
2021/05/16 12:19:28;;;;;;;3.08;1.92;;;717.70;1408.00;;;;;;5076545;28;20016;-75
2021/05/16 12:22:12;;;;;;;2.83;2.00;;;666.20;1536.00;;;;;;5069002;28;20517;-74
2021/05/16 12:24:45;;;;;;;4.18;2.25;;;717.60;1382.40;;;;;;5067883;28;20045;-75
2021/05/16 12:27:13;;;;;;;5.20;3.10;;;768.10;1331.20;;;;;;5078604;28;20134;-75
2021/05/16 12:29:40;;;;;;;3.58;2.35;;;768.50;1280.00;;;;;;5073652;28;20437;-75
2021/05/16 12:32:10;;;;;;;4.25;2.65;;;793.80;1254.40;;;;;;5077537;28;20049;-76
2021/05/16 12:34:37;;;;;;;7.45;5.25;;;794.50;1177.60;;;;;;5065320;28;20131;-75
2021/05/16 12:37:14;;;;;;;3.65;1.95;;;794.40;1177.60;;;;;;5068583;28;20017;-75
2021/05/16 12:39:48;;;;;;;4.28;2.10;;;768.10;1254.40;;;;;;5067314;28;20120;-76
2021/05/16 12:42:46;;;;;;;4.22;2.88;;;692.00;1382.40;;;;;;5067690;28;20020;-75
2021/05/16 12:45:23;;;;;;;5.93;3.00;;;691.40;1484.80;;;;;;5031978;28;20124;-75
2021/05/16 12:48:05;;;;;;;3.95;2.67;;;666.20;1510.40;;;;;;5034798;28;20030;-75
2021/05/16 12:50:42;;;;;;;4.22;2.53;;;665.80;1536.00;;;;;;5015387;28;20036;-75
2021/05/16 12:53:31;;;;;;;4.15;2.42;;;640.90;1561.60;;;;;;5033890;28;20064;-75
2021/05/16 12:56:16;;;;;;;4.20;2.03;;;666.10;1561.60;;;;;;5034546;28;20033;-75
2021/05/16 12:58:59;;;;;;;4.30;1.98;;;691.90;1459.20;;;;;;5033057;28;20037;-77
2021/05/16 13:01:27;;;;;;;6.03;2.00;;;742.40;1408.00;;;;;;5031215;28;20030;-78
2021/05/16 13:04:01;;;;;;;3.67;2.30;;;768.20;1331.20;;;;;;5034361;28;20056;-78
2021/05/16 13:06:31;;;;;;;3.78;2.10;;;793.60;1280.00;;;;;;5031624;28;20044;-78
2021/05/16 13:08:58;;;;;;;3.60;2.35;;;794.40;1203.20;;;;;;5031391;28;20516;-78
2021/05/16 13:11:24;;;;;;;3.15;1.92;;;794.00;1228.80;;;;;;5018781;28;20045;-75
2021/05/16 13:14:04;;;;;;;4.38;2.35;;;768.60;1203.20;;;;;;5032735;28;20053;-76
2021/05/16 13:16:37;;;;;;;4.72;1.92;;;794.10;1203.20;;;;;;5012184;28;20029;-75
2021/05/16 13:19:04;;;;;;;3.75;2.22;;;793.80;1228.80;;;;;;5030941;28;20033;-74
2021/05/16 13:21:33;;;;;;;5.60;2.88;;;768.30;1228.80;;;;;;5046142;28;20549;-75
2021/05/16 13:24:05;;;;;;;3.97;2.65;;;793.80;1228.80;;;;;;5050166;28;20025;-74
2021/05/16 13:26:52;;;;;;;3.75;2.30;;;794.10;1177.60;;;;;;5065243;28;20040;-75
2021/05/16 13:29:20;;;;;;;7.32;3.13;;;793.90;1126.40;;;;;;5052372;28;20480;-75
2021/05/16 13:31:47;;;;;;;2.55;1.60;;;768.40;1152.00;;;;;;5054080;28;20045;-75
2021/05/16 13:34:23;;;;;;;4.25;2.17;;;793.80;1126.40;;;;;;5055997;28;20029;-75
2021/05/16 13:36:50;;;;;;;5.38;2.80;;;743.10;1203.20;;;;;;5058388;28;20025;-75
2021/05/16 13:39:18;;;;;;;3.63;1.98;;;742.40;1228.80;;;;;;5056989;28;20021;-75
2021/05/16 13:41:44;;;;;;;3.60;1.95;;;742.40;1203.20;;;;;;5070862;28;20048;-74
2021/05/16 13:44:10;;;;;;;3.80;2.13;;;742.90;1177.60;;;;;;5055100;28;20041;-76
2021/05/16 13:46:37;;;;;;;3.35;2.15;;;768.00;1177.60;;;;;;5054418;28;20369;-75
2021/05/16 13:49:04;;;;;;;4.07;2.35;;;717.30;1228.80;;;;;;5053420;28;20024;-75
2021/05/16 13:51:31;;;;;;;3.88;2.30;;;691.80;1280.00;;;;;;5066323;28;20029;-76
2021/05/16 13:53:57;;;;;;;3.88;2.35;;;717.40;1254.40;;;;;;5057655;28;20024;-76
2021/05/16 13:56:23;;;;;;;2.97;1.83;;;691.70;1356.80;;;;;;5050476;28;20021;-75
2021/05/16 13:58:49;;;;;;;4.05;2.05;;;716.90;1356.80;;;;;;5072190;28;20025;-79
2021/05/16 14:01:15;;;;;;;3.53;2.05;;;692.00;1433.60;;;;;;5060801;28;20044;-79
2021/05/16 14:03:42;;;;;;;4.05;1.90;;;692.00;1382.40;;;;;;5067030;28;20103;-79
2021/05/16 14:06:09;;;;;;;3.00;2.10;;;717.00;1382.40;;;;;;5061055;28;20800;-79
2021/05/16 14:08:35;;;;;;;3.45;1.90;;;716.80;1382.40;;;;;;5061710;28;20033;-79
2021/05/16 14:11:01;;;;;;;6.65;1.92;;;717.60;1356.80;;;;;;5065501;28;20796;-78
2021/05/16 14:13:27;;;;;;;4.30;2.13;;;692.00;1433.60;;;;;;5064110;28;20031;-76
2021/05/16 14:15:52;;;;;;;3.42;1.80;;;716.80;1433.60;;;;;;5054162;28;20502;-75
2021/05/16 14:18:18;;;;;;;3.72;1.85;;;717.40;1433.60;;;;;;5059598;28;20032;-75
2021/05/16 14:20:44;;;;;;;2.85;1.80;;;717.50;1408.00;;;;;;5052513;28;20063;-76
2021/05/16 14:23:10;;;;;;;3.90;2.15;;;742.40;1433.60;;;;;;5053900;28;20057;-76
2021/05/16 14:25:35;;;;;;;4.45;2.08;;;666.10;1484.80;;;;;;5047489;28;20037;-76
2021/05/16 14:28:01;;;;;;;3.00;2.05;;;666.10;1536.00;;;;;;5056898;28;20053;-76
2021/05/16 14:30:27;;;;;;;2.35;1.80;;;640.80;1561.60;;;;;;5036868;28;20030;-76
2021/05/16 14:32:53;;;;;;;3.67;2.20;;;640.20;1612.80;;;;;;5049432;28;20048;-77
2021/05/16 14:35:18;;;;;;;3.05;1.92;;;640.10;1638.40;;;;;;5050731;28;20138;-76
2021/05/16 14:37:45;;;;;;;4.22;2.03;;;640.30;1664.00;;;;;;5050217;28;20035;-76
2021/05/16 14:40:12;;;;;;;3.28;2.15;;;665.90;1587.20;;;;;;5051936;28;20021;-75
2021/05/16 14:42:37;;;;;;;5.13;2.78;;;691.50;1536.00;;;;;;5067458;28;20064;-76
2021/05/16 14:45:04;;;;;;;4.63;2.28;;;717.40;1459.20;;;;;;5050246;28;20048;-76
2021/05/16 14:47:30;;;;;;;3.55;2.00;;;717.30;1408.00;;;;;;5050711;28;20029;-76
2021/05/16 14:49:55;;;;;;;3.83;2.30;;;716.90;1459.20;;;;;;5050424;28;20029;-76
2021/05/16 14:52:21;;;;;;;6.78;2.40;;;716.80;1459.20;;;;;;5066853;28;20046;-77
2021/05/16 14:54:47;;;;;;;4.30;2.53;;;691.70;1459.20;;;;;;5051289;28;20051;-76
2021/05/16 14:57:12;;;;;;;5.28;2.35;;;691.80;1459.20;;;;;;5050291;28;20032;-76
2021/05/16 14:59:38;;;;;;;4.30;2.70;;;716.80;1433.60;;;;;;5050422;28;20032;-76
2021/05/16 15:02:04;;;;;;;3.20;2.47;;;717.30;1408.00;;;;;;5046595;28;20396;-76
2021/05/16 15:04:29;;;;;;;4.47;2.40;;;691.70;1433.60;;;;;;5045646;28;20033;-75
2021/05/16 15:06:55;;;;;;;5.63;2.28;;;692.10;1433.60;;;;;;5046271;28;20033;-75
2021/05/16 15:09:21;;;;;;;6.55;3.70;;;717.10;1433.60;;;;;;5044155;28;20035;-76
2021/05/16 15:11:47;;;;;;;4.35;3.22;;;691.80;1459.20;;;;;;5047305;28;20041;-76
2021/05/16 15:14:12;;;;;;;3.72;2.28;;;691.30;1484.80;;;;;;5050250;28;20112;-76
2021/05/16 15:16:38;;;;;;;3.58;2.78;;;640.80;1561.60;;;;;;5050702;28;20025;-76
2021/05/16 15:19:04;;;;;;;4.25;2.10;;;615.20;1638.40;;;;;;5049222;28;20861;-75
2021/05/16 15:21:32;;;;;;;3.80;2.53;;;614.80;1638.40;;;;;;5049781;28;20021;-76
2021/05/16 15:23:58;;;;;;;4.18;3.03;;;614.90;1664.00;;;;;;5049660;28;20036;-76
2021/05/16 15:26:23;;;;;;;5.50;3.30;;;614.60;1740.80;;;;;;5051144;28;20025;-76
2021/05/16 15:28:49;;;;;;;6.47;2.40;;;614.50;1740.80;;;;;;5049211;28;20037;-77
2021/05/16 15:31:15;;;;;;;4.13;2.10;;;589.70;1766.40;;;;;;5050946;28;20033;-77
2021/05/16 15:33:41;;;;;;;4.78;2.05;;;614.60;1766.40;;;;;;5050635;28;20103;-76
2021/05/16 15:36:08;;;;;;;3.63;2.40;;;640.00;1689.60;;;;;;5051690;28;20047;-76
2021/05/16 15:38:34;;;;;;;7.35;3.20;;;640.40;1638.40;;;;;;5049161;28;20032;-76
2021/05/16 15:41:02;;;;;;;4.63;2.97;;;665.60;1638.40;;;;;;5051448;28;20100;-76
2021/05/16 15:43:28;;;;;;;3.78;2.40;;;640.80;1587.20;;;;;;5046194;28;20056;-76
2021/05/16 15:45:54;;;;;;;9.35;5.43;;;640.30;1612.80;;;;;;5049839;28;20071;-76
2021/05/16 15:48:21;;;;;;;5.68;3.08;;;614.90;1689.60;;;;;;5050783;28;20100;-76
2021/05/16 15:50:47;;;;;;;5.80;2.88;;;615.30;1664.00;;;;;;5054993;28;20036;-76
2021/05/16 15:53:13;;;;;;;5.43;3.95;;;640.30;1612.80;;;;;;5050561;28;20021;-76
2021/05/16 15:55:41;;;;;;;4.07;2.42;;;640.00;1612.80;;;;;;5051033;28;20112;-76
2021/05/16 15:58:08;;;;;;;3.75;2.00;;;640.00;1587.20;;;;;;5047908;28;20071;-76
2021/05/16 16:00:35;;;;;;;5.13;1.85;;;615.30;1587.20;;;;;;5048987;28;20849;-76
2021/05/16 16:03:01;;;;;;;4.13;1.90;;;615.10;1587.20;;;;;;5049552;28;20760;-76
2021/05/16 16:05:28;;;;;;;3.72;2.70;;;614.90;1587.20;;;;;;5040357;28;20060;-76
2021/05/16 16:07:54;;;;;;;5.10;2.30;;;640.00;1536.00;;;;;;5052443;28;20167;-76
2021/05/16 16:10:22;;;;;;;4.75;2.40;;;640.00;1587.20;;;;;;5057110;28;20111;-77
2021/05/16 16:12:48;;;;;;;4.95;2.58;;;640.20;1587.20;;;;;;5053134;28;20128;-76
2021/05/16 16:15:15;;;;;;;3.97;2.72;;;640.20;1561.60;;;;;;5052319;28;20024;-76
2021/05/16 16:17:40;;;;;;;5.57;2.67;;;640.30;1561.60;;;;;;5051799;28;20122;-76
2021/05/16 16:20:09;;;;;;;5.15;2.45;;;640.50;1536.00;;;;;;5055361;28;20482;-76
2021/05/16 16:22:36;;;;;;;4.90;2.10;;;615.30;1561.60;;;;;;5055361;28;20033;-75
2021/05/16 16:25:03;;;;;;;5.07;2.25;;;615.30;1561.60;;;;;;5061492;28;20050;-76
2021/05/16 16:27:29;;;;;;;3.30;2.28;;;614.90;1587.20;;;;;;5051803;28;20032;-75
2021/05/16 16:29:55;;;;;;;3.40;1.73;;;614.60;1612.80;;;;;;5069225;28;20037;-74
2021/05/16 16:32:21;;;;;;;3.80;2.10;;;589.50;1638.40;;;;;;5057319;28;20044;-75
2021/05/16 16:34:48;;;;;;;3.58;2.05;;;589.20;1664.00;;;;;;5052514;28;20486;-75
2021/05/16 16:37:15;;;;;;;4.80;2.17;;;589.00;1715.20;;;;;;5051277;28;20020;-75
2021/05/16 16:39:41;;;;;;;6.03;3.08;;;589.20;1715.20;;;;;;5057483;28;20480;-75
2021/05/16 16:42:07;;;;;;;7.60;4.30;;;588.90;1740.80;;;;;;5069245;28;20033;-75
2021/05/16 16:44:34;;;;;;;5.32;3.45;;;564.10;1740.80;;;;;;5068776;28;20506;-75
2021/05/16 16:47:01;;;;;;;3.17;2.40;;;563.90;1766.40;;;;;;5053238;28;20099;-75
2021/05/16 16:49:27;;;;;;;5.47;2.85;;;563.70;1792.00;;;;;;5046164;28;20107;-75
2021/05/16 16:51:53;;;;;;;4.93;2.60;;;563.60;1817.60;;;;;;5074571;28;20112;-75
2021/05/16 16:54:18;;;;;;;4.22;2.28;;;563.50;1817.60;;;;;;5059762;28;20017;-75
2021/05/16 16:56:44;;;;;;;9.23;2.72;;;563.50;1817.60;;;;;;5052016;28;20025;-75
2021/05/16 16:59:10;;;;;;;5.57;2.20;;;563.30;1817.60;;;;;;5053379;28;20438;-76
2021/05/16 17:01:36;;;;;;;5.80;2.97;;;563.30;1817.60;;;;;;5058467;28;20464;-75
2021/05/16 17:04:02;;;;;;;6.80;2.55;;;563.50;1843.20;;;;;;5053061;28;20025;-76
2021/05/16 17:06:27;;;;;;;4.63;2.00;;;563.60;1843.20;;;;;;5052935;28;20021;-75
2021/05/16 17:08:53;;;;;;;4.30;2.65;;;563.80;1817.60;;;;;;5057255;28;20411;-76
2021/05/16 17:11:20;;;;;;;3.78;2.33;;;563.70;1843.20;;;;;;5057061;28;20036;-76
2021/05/16 17:13:46;;;;;;;4.72;2.92;;;563.60;1817.60;;;;;;5052894;28;20029;-75
2021/05/16 17:16:14;;;;;;;4.43;2.53;;;563.70;1843.20;;;;;;5051406;28;20559;-75
2021/05/16 17:18:40;;;;;;;4.43;2.53;;;563.70;1817.60;;;;;;5049471;28;20073;-75
2021/05/16 17:21:06;;;;;;;6.10;2.85;;;563.70;1843.20;;;;;;5052552;28;20048;-75
2021/05/16 17:23:31;;;;;;;3.95;2.53;;;563.50;1843.20;;;;;;5054135;28;20090;-75
2021/05/16 17:25:57;;;;;;;8.38;2.90;;;563.40;1868.80;;;;;;5051356;28;20067;-75
2021/05/16 17:28:27;;;;;;;7.07;3.00;;;563.30;1868.80;;;;;;5051899;28;20489;-75
2021/05/16 17:30:54;;;;;;;7.32;3.47;;;563.20;1868.80;;;;;;5052922;28;20017;-75
2021/05/16 17:33:23;;;;;;;4.07;2.35;;;563.20;1868.80;;;;;;5052336;28;20824;-75
2021/05/16 17:35:49;;;;;;;4.97;2.33;;;538.40;1868.80;;;;;;5065496;28;20029;-76
2021/05/16 17:38:15;;;;;;;6.78;3.78;;;538.30;1894.40;;;;;;5055942;28;20076;-75
2021/05/16 17:40:41;;;;;;;12.57;3.50;;;538.10;1894.40;;;;;;5053965;28;20052;-75
2021/05/16 17:43:07;;;;;;;4.18;2.40;;;538.00;1920.00;;;;;;5054502;28;20025;-76
2021/05/16 17:45:33;;;;;;;4.53;2.50;;;537.80;1894.40;;;;;;5058878;28;20029;-76
2021/05/16 17:48:00;;;;;;;3.75;2.42;;;537.80;1894.40;;;;;;5052393;28;20475;-76
2021/05/16 17:50:26;;;;;;;4.18;2.70;;;537.70;1894.40;;;;;;5055020;28;20021;-76
2021/05/16 17:52:52;;;;;;;6.32;3.08;;;537.60;1920.00;;;;;;5053678;28;20111;-75
2021/05/16 17:55:18;;;;;;;6.82;4.03;;;512.80;1945.60;;;;;;5052069;28;20052;-75
2021/05/16 17:57:44;;;;;;;5.65;4.18;;;512.70;1971.20;;;;;;5052019;28;20032;-75
2021/05/16 18:00:11;;;;;;;12.50;4.50;;;512.70;1971.20;;;;;;5055800;28;20024;-75
2021/05/16 18:02:42;;;;;;;6.05;4.43;;;512.60;1996.80;;;;;;5057614;28;20431;-75
2021/05/16 18:05:10;;;;;;;5.45;4.10;;;512.50;2022.40;;;;;;5050599;28;20049;-76
2021/05/16 18:07:36;;;;;;;7.22;5.07;;;512.40;2022.40;;;;;;5053990;28;20021;-76
2021/05/16 18:10:04;;;;;;;10.40;6.47;;;512.30;2048.00;;;;;;5053451;28;20025;-75
2021/05/16 18:12:30;;;;;;;11.75;6.47;;;512.20;2073.60;;;;;;5050648;28;20020;-75
2021/05/16 18:14:56;;;;;;;7.65;5.85;;;512.10;2099.20;;;;;;5056336;28;20025;-76
2021/05/16 18:17:22;;;;;;;8.32;5.32;;;512.20;2124.80;;;;;;5050233;28;20036;-75
2021/05/16 18:19:47;;;;;;;7.47;5.07;;;512.20;2124.80;;;;;;5050439;28;20087;-76
2021/05/16 18:22:13;;;;;;;10.90;5.20;;;512.20;2150.40;;;;;;5051909;28;20048;-78
2021/05/16 18:24:39;;;;;;;7.85;4.22;;;512.00;2150.40;;;;;;5053967;28;20115;-77
2021/05/16 18:27:06;;;;;;;6.65;4.53;;;512.00;2176.00;;;;;;5053744;28;20044;-77
2021/05/16 18:29:32;;;;;;;8.20;5.15;;;487.30;2201.60;;;;;;5052468;28;20411;-77
2021/05/16 18:31:59;;;;;;;6.38;4.85;;;487.30;2227.20;;;;;;5053031;28;20053;-77
2021/05/16 18:34:25;;;;;;;8.23;4.13;;;487.20;2252.80;;;;;;5052703;28;20033;-81
2021/05/16 18:36:52;;;;;;;12.18;4.32;;;487.10;2278.40;;;;;;5052089;28;20455;-80
2021/05/16 18:39:17;;;;;;;8.80;4.05;;;487.00;2278.40;;;;;;5058691;28;20037;-77
2021/05/16 18:41:43;;;;;;;8.65;4.68;;;487.00;2304.00;;;;;;5057930;28;20035;-79
2021/05/16 18:44:10;;;;;;;11.00;4.85;;;486.90;2329.60;;;;;;5056016;28;20020;-78
2021/05/16 18:46:36;;;;;;;11.50;4.60;;;486.90;2329.60;;;;;;5058563;28;20029;-78
2021/05/16 18:49:02;;;;;;;10.43;4.55;;;486.80;2329.60;;;;;;5056266;28;20038;-77
2021/05/16 18:51:28;;;;;;;9.25;4.47;;;486.70;2355.20;;;;;;5054166;28;20033;-78
2021/05/16 18:53:54;;;;;;;8.30;4.22;;;486.70;2329.60;;;;;;5056712;28;20035;-78
2021/05/16 18:56:20;;;;;;;9.30;4.25;;;486.70;2329.60;;;;;;5058885;28;20020;-78
2021/05/16 18:58:46;;;;;;;12.25;4.68;;;486.60;2355.20;;;;;;5054147;28;20499;-78
2021/05/16 19:01:12;;;;;;;8.77;4.70;;;486.60;2355.20;;;;;;5053130;28;20033;-79
2021/05/16 19:03:38;;;;;;;6.35;4.45;;;486.50;2380.80;;;;;;5056119;28;20040;-79
2021/05/16 19:06:09;;;;;;;8.63;4.78;;;486.50;2380.80;;;;;;5055057;28;20040;-79
2021/05/16 19:08:36;;;;;;;14.02;4.63;;;486.40;2329.60;;;;;;5068952;28;20029;-79
2021/05/16 19:11:03;;;;;;;9.00;5.07;;;461.70;2380.80;;;;;;5056067;28;20401;-78
2021/05/16 19:13:29;;;;;;;11.60;6.78;;;461.70;2380.80;;;;;;5054035;28;20068;-79
2021/05/16 19:15:55;;;;;;;20.80;8.43;;;461.70;2380.80;;;;;;5055110;28;20093;-79
2021/05/16 19:18:22;;;;;;;21.75;19.58;;;461.70;2380.80;;;;;;5051147;28;20120;-78
2021/05/16 19:20:49;;;;;;;21.73;18.05;;;461.60;2380.80;;;;;;5057126;28;20059;-77
2021/05/16 19:23:15;;;;;;;20.20;13.80;;;461.40;2380.80;;;;;;5062102;28;20036;-77
2021/05/16 19:25:46;;;;;;;19.75;10.85;;;461.50;2380.80;;;;;;5050082;28;20066;-79
2021/05/16 19:28:17;;;;;;;15.88;9.35;;;461.40;2380.80;;;;;;5068016;28;20133;-78
2021/05/16 19:30:44;;;;;;;16.98;9.38;;;461.40;2380.80;;;;;;5047586;28;20044;-78
2021/05/16 19:33:10;;;;;;;17.27;8.95;;;461.40;2380.80;;;;;;5051684;28;20045;-80
2021/05/16 19:35:36;;;;;;;16.50;9.88;;;461.30;2380.80;;;;;;5052294;28;20029;-79
2021/05/16 19:38:02;;;;;;;20.00;8.80;;;461.30;2380.80;;;;;;5055895;28;20024;-77
2021/05/16 19:40:28;;;;;;;18.55;9.57;;;461.30;2380.80;;;;;;5058804;28;20479;-77
2021/05/16 19:42:54;;;;;;;12.32;8.10;;;461.20;2380.80;;;;;;5050128;28;20041;-76
2021/05/16 19:45:20;;;;;;;13.50;7.43;;;461.10;2380.80;;;;;;5050885;28;20033;-78
2021/05/16 19:47:46;;;;;;;8.57;6.00;;;461.10;2380.80;;;;;;5048966;28;20033;-78
2021/05/16 19:50:12;;;;;;;11.27;6.97;;;461.10;2380.80;;;;;;5054610;28;20020;-79
2021/05/16 19:52:38;;;;;;;8.02;5.97;;;461.00;2380.80;;;;;;5054766;28;20025;-78
2021/05/16 19:55:07;;;;;;;15.52;7.13;;;461.00;2380.80;;;;;;5055873;28;20025;-78
2021/05/16 19:57:33;;;;;;;14.90;7.70;;;460.80;2380.80;;;;;;5056087;28;20009;-78
2021/05/16 20:00:00;;;;;;;11.52;6.55;;;436.10;2355.20;;;;;;5057822;28;20051;-78
2021/05/16 20:02:25;;;;;;;17.02;8.23;;;436.10;2355.20;;;;;;5062857;28;20024;-78
2021/05/16 20:04:51;;;;;;;14.75;8.43;;;460.80;2380.80;;;;;;5064523;28;20094;-80
2021/05/16 20:07:17;;;;;;;13.73;8.43;;;460.80;2380.80;;;;;;5055039;28;20036;-80
2021/05/16 20:09:43;;;;;;;13.18;7.18;;;460.80;2380.80;;;;;;5063282;28;20033;-77
2021/05/16 20:12:09;;;;;;;10.23;7.00;;;436.10;2355.20;;;;;;5065932;28;20437;-78
2021/05/16 20:14:35;;;;;;;20.63;8.80;;;436.10;2355.20;;;;;;5055228;28;20021;-78
2021/05/16 20:17:00;;;;;;;21.20;9.20;;;436.00;2355.20;;;;;;5053262;28;20017;-79
2021/05/16 20:19:26;;;;;;;14.90;9.95;;;435.80;2355.20;;;;;;5053326;28;20399;-79
2021/05/16 20:21:52;;;;;;;17.65;8.82;;;435.70;2355.20;;;;;;5054145;28;20029;-79
2021/05/16 20:24:18;;;;;;;22.38;8.85;;;435.50;2355.20;;;;;;5055432;28;20388;-79
2021/05/16 20:26:43;;;;;;;26.17;9.45;;;435.50;2355.20;;;;;;5052679;28;20060;-80
2021/05/16 20:29:13;;;;;;;17.90;10.23;;;435.50;2355.20;;;;;;5053289;28;20618;-80
2021/05/16 20:31:42;;;;;;;19.02;9.05;;;435.40;2355.20;;;;;;5052453;28;20013;-82
2021/05/16 20:34:08;;;;;;;11.18;8.20;;;435.40;2355.20;;;;;;5053981;28;20480;-80
2021/05/16 20:36:34;;;;;;;14.13;10.40;;;435.30;2355.20;;;;;;5053400;28;20025;-79
2021/05/16 20:39:00;;;;;;;14.05;10.15;;;435.30;2355.20;;;;;;5052526;28;20112;-80
2021/05/16 20:41:27;;;;;;;16.15;9.43;;;435.20;2355.20;;;;;;5051457;28;20043;-80
2021/05/16 20:43:53;;;;;;;12.90;8.10;;;410.50;2355.20;;;;;;5050441;28;20028;-81
2021/05/16 20:46:19;;;;;;;13.25;8.85;;;410.50;2355.20;;;;;;5056455;28;20017;-79
2021/05/16 20:48:45;;;;;;;17.02;9.57;;;410.50;2355.20;;;;;;5052650;28;20033;-79
2021/05/16 20:51:11;;;;;;;15.85;9.65;;;410.50;2355.20;;;;;;5052371;28;20155;-80
2021/05/16 20:53:41;;;;;;;10.13;8.90;;;410.50;2355.20;;;;;;5055333;28;20423;-80
2021/05/16 20:56:08;;;;;;;9.38;8.10;;;410.50;2355.20;;;;;;5069605;28;20023;-80
2021/05/16 20:58:34;;;;;;;14.32;8.65;;;410.50;2355.20;;;;;;5053268;28;20387;-79
2021/05/16 21:01:00;;;;;;;20.75;7.75;;;410.50;2355.20;;;;;;5052324;28;20056;-78
2021/05/16 21:03:26;;;;;;;13.52;7.93;;;410.50;2355.20;;;;;;5052444;28;20065;-78
2021/05/16 21:05:52;;;;;;;11.43;8.57;;;410.40;2355.20;;;;;;5065856;28;20028;-79
2021/05/16 21:08:18;;;;;;;10.02;9.05;;;410.40;2355.20;;;;;;5052278;28;20029;-79
2021/05/16 21:10:44;;;;;;;11.45;8.45;;;410.30;2355.20;;;;;;5058042;28;20423;-79
2021/05/16 21:13:10;;;;;;;10.68;9.13;;;410.30;2355.20;;;;;;5057653;28;20029;-80
2021/05/16 21:15:37;;;;;;;10.40;9.27;;;410.20;2355.20;;;;;;5055136;28;20056;-79
2021/05/16 21:18:04;;;;;;;10.10;8.43;;;410.20;2355.20;;;;;;5065050;28;20024;-76
2021/05/16 21:20:31;;;;;;;12.15;8.60;;;410.20;2355.20;;;;;;5059731;28;20032;-77
2021/05/16 21:22:58;;;;;;;12.43;9.35;;;410.20;2355.20;;;;;;5059084;28;20021;-78
2021/05/16 21:25:27;;;;;;;12.68;8.23;;;410.20;2355.20;;;;;;5053708;28;20029;-78
2021/05/16 21:27:53;;;;;;;10.35;9.05;;;410.30;2355.20;;;;;;5052565;28;20025;-77
2021/05/16 21:30:21;;;;;;;13.68;9.10;;;410.30;2355.20;;;;;;5055675;28;20032;-78
2021/05/16 21:32:48;;;;;;;12.45;9.40;;;410.10;2355.20;;;;;;5054466;28;20044;-77
2021/05/16 21:35:14;;;;;;;10.93;8.68;;;410.00;2355.20;;;;;;5058611;28;20059;-77
2021/05/16 21:37:40;;;;;;;12.85;8.90;;;409.90;2355.20;;;;;;5060386;28;20024;-77
2021/05/16 21:40:10;;;;;;;10.00;7.93;;;409.90;2355.20;;;;;;5067943;28;20025;-77
2021/05/16 21:42:36;;;;;;;10.50;7.85;;;409.90;2355.20;;;;;;5058122;28;20450;-77
2021/05/16 21:45:04;;;;;;;12.43;8.10;;;409.90;2355.20;;;;;;5060601;28;20035;-77
2021/05/16 21:47:29;;;;;;;9.80;7.90;;;410.00;2355.20;;;;;;5064030;28;20383;-78
2021/05/16 21:49:55;;;;;;;8.93;8.02;;;409.90;2355.20;;;;;;5056613;28;20462;-78
2021/05/16 21:52:21;;;;;;;11.15;7.60;;;409.90;2355.20;;;;;;5049527;28;20032;-77
2021/05/16 21:54:47;;;;;;;11.70;6.40;;;409.90;2355.20;;;;;;5053876;28;20017;-76
2021/05/16 21:57:12;;;;;;;14.20;7.10;;;409.90;2355.20;;;;;;5052700;28;20021;-77
2021/05/16 21:59:38;;;;;;;8.10;6.18;;;409.90;2355.20;;;;;;5056427;28;20092;-78
2021/05/16 22:02:04;;;;;;;7.85;6.40;;;409.90;2355.20;;;;;;5058141;28;20029;-77
2021/05/16 22:04:29;;;;;;;7.00;5.72;;;410.00;2355.20;;;;;;5056561;28;20060;-76
2021/05/16 22:06:55;;;;;;;8.35;6.63;;;409.90;2355.20;;;;;;5058500;28;20439;-76
2021/05/16 22:09:21;;;;;;;6.68;5.55;;;409.90;2355.20;;;;;;5062715;28;20084;-75
2021/05/16 22:11:47;;;;;;;7.10;4.82;;;409.90;2355.20;;;;;;5054916;28;20020;-75
2021/05/16 22:14:13;;;;;;;8.15;5.63;;;409.90;2355.20;;;;;;5057512;28;20476;-75
2021/05/16 22:16:39;;;;;;;9.15;5.72;;;409.90;2355.20;;;;;;5057990;28;20017;-75
2021/05/16 22:19:05;;;;;;;6.78;5.28;;;410.00;2355.20;;;;;;5055012;28;20024;-76
2021/05/16 22:21:31;;;;;;;7.40;5.68;;;410.00;2355.20;;;;;;5062649;28;20036;-76
2021/05/16 22:23:57;;;;;;;6.75;4.85;;;410.00;2355.20;;;;;;5062423;28;20063;-75
2021/05/16 22:26:23;;;;;;;5.97;5.18;;;410.10;2355.20;;;;;;5065316;28;20468;-75
2021/05/16 22:28:49;;;;;;;7.40;5.57;;;410.20;2355.20;;;;;;5056189;28;20025;-76
2021/05/16 22:31:15;;;;;;;8.40;6.22;;;410.10;2355.20;;;;;;5063850;28;20063;-76
2021/05/16 22:33:41;;;;;;;7.63;5.38;;;410.20;2355.20;;;;;;5060145;28;20048;-76
2021/05/16 22:36:07;;;;;;;10.05;6.18;;;410.20;2355.20;;;;;;5057206;28;20021;-76
2021/05/16 22:38:34;;;;;;;7.38;5.63;;;410.20;2355.20;;;;;;5051633;28;20025;-75
2021/05/16 22:41:00;;;;;;;7.85;6.40;;;410.20;2355.20;;;;;;5057980;28;20039;-76
2021/05/16 22:43:26;;;;;;;10.18;7.30;;;410.20;2355.20;;;;;;5059751;28;20033;-75
2021/05/16 22:45:52;;;;;;;7.38;6.28;;;410.20;2355.20;;;;;;5073634;28;20045;-75
2021/05/16 22:48:18;;;;;;;12.00;6.05;;;410.20;2355.20;;;;;;5060083;28;20020;-75
2021/05/16 22:50:44;;;;;;;8.13;6.05;;;410.10;2355.20;;;;;;5051730;28;20029;-75
2021/05/16 22:53:10;;;;;;;10.57;6.38;;;410.10;2355.20;;;;;;5048683;28;20029;-76
2021/05/16 22:55:36;;;;;;;14.73;9.18;;;410.10;2355.20;;;;;;5049718;28;20078;-75
2021/05/16 22:58:02;;;;;;;42.40;26.60;;;410.00;2355.20;;;;;;5050286;28;20108;-76
2021/05/16 23:00:29;;;;;;;31.40;16.30;;;409.90;2355.20;;;;;;5051388;28;20104;-76
2021/05/16 23:02:56;;;;;;;26.23;17.13;;;409.90;2355.20;;;;;;5076375;28;20060;-76
2021/05/16 23:05:22;;;;;;;13.27;10.15;;;409.80;2355.20;;;;;;5050627;28;20025;-77
2021/05/16 23:07:47;;;;;;;12.88;9.27;;;409.70;2355.20;;;;;;5047722;28;20375;-78
2021/05/16 23:10:16;;;;;;;11.57;9.23;;;409.60;2355.20;;;;;;5051134;28;20032;-77
2021/05/16 23:12:46;;;;;;;11.50;9.73;;;409.60;2355.20;;;;;;5045953;28;20056;-77
2021/05/16 23:15:12;;;;;;;9.98;8.30;;;384.90;2329.60;;;;;;5049387;28;20021;-77
2021/05/16 23:17:40;;;;;;;12.02;9.30;;;384.90;2329.60;;;;;;5039950;28;20028;-77
2021/05/16 23:20:07;;;;;;;11.35;9.82;;;384.90;2329.60;;;;;;5049639;28;20029;-77
2021/05/16 23:22:33;;;;;;;11.60;9.50;;;384.80;2329.60;;;;;;5044426;28;20021;-77
2021/05/16 23:24:59;;;;;;;12.93;9.75;;;384.80;2329.60;;;;;;5050387;28;20503;-77
2021/05/16 23:27:24;;;;;;;10.70;9.45;;;384.70;2329.60;;;;;;5048683;28;20032;-78
2021/05/16 23:29:50;;;;;;;13.43;9.52;;;384.70;2329.60;;;;;;5063095;28;20040;-77
2021/05/16 23:32:17;;;;;;;11.93;10.32;;;384.60;2329.60;;;;;;5035800;28;20048;-78
2021/05/16 23:34:45;;;;;;;13.65;11.68;;;384.60;2329.60;;;;;;5051684;28;20476;-77
2021/05/16 23:37:12;;;;;;;11.55;8.98;;;384.60;2329.60;;;;;;5052725;28;20531;-77
2021/05/16 23:39:38;;;;;;;13.00;11.10;;;384.50;2329.60;;;;;;5059751;28;20025;-77
2021/05/16 23:42:04;;;;;;;16.67;11.88;;;384.50;2329.60;;;;;;5050303;28;20652;-77
2021/05/16 23:44:30;;;;;;;13.98;11.30;;;384.40;2329.60;;;;;;5050329;28;20078;-77